This is the latest recevied weather packets stored in our database for station/object N8RJH-13. If no packets are shown the sender has not sent any weather packets the latest 10 day(s).
| Time | Temp. | Humidity | Pressure | Rain* | Wind** | Luminosity | Snow |
|---|---|---|---|---|---|---|---|
| 1787789037 | 26.67° C | 75% | 1018.3 hPa | - | - | - | - |
| 1787788416 | 27.22° C | 74% | 1018.3 hPa | - | - | - | - |
| 1787787784 | 27.78° C | 73% | 1018.4 hPa | - | - | - | - |
| 1787787176 | 27.78° C | 73% | 1018.5 hPa | - | - | - | - |
| 1787786547 | 28.33° C | 71% | 1018.4 hPa | - | - | - | - |
| 1787785916 | 28.33° C | 70% | 1018.5 hPa | - | - | - | - |
| 1787785287 | 28.33° C | 70% | 1018.6 hPa | - | - | - | - |
| 1787784666 | 28.89° C | 69% | 1018.4 hPa | - | - | - | - |
| 1787784026 | 28.89° C | 68% | 1018.2 hPa | - | - | - | - |
| 1787783397 | 28.89° C | 68% | 1018.1 hPa | - | - | - | - |
| 1787782777 | 28.89° C | 68% | 1018.4 hPa | - | - | - | - |
| 1787782146 | 28.89° C | 67% | 1018.3 hPa | - | - | - | - |
| 1787781537 | 28.89° C | 67% | 1018.4 hPa | - | - | - | - |
| 1787780907 | 29.44° C | 65% | 1018.5 hPa | - | - | - | - |
| 1787780287 | 29.44° C | 67% | 1018.8 hPa | - | - | - | - |
| 1787779676 | 29.44° C | 65% | 1018.5 hPa | - | - | - | - |
| 1787779057 | 29.44° C | 66% | 1018.9 hPa | - | - | - | - |
| 1787778437 | 29.44° C | 67% | 1019.3 hPa | - | - | - | - |
| 1787777813 | 29.44° C | 69% | 1019.2 hPa | - | - | - | - |
| 1787777187 | 29.44° C | 69% | 1019.4 hPa | - | - | - | - |
| 1787776557 | 29.44° C | 69% | 1019.4 hPa | - | - | - | - |
| 1787775927 | 29.44° C | 69% | 1019.6 hPa | - | - | - | - |
| 1787775296 | 29.44° C | 67% | 1019.3 hPa | - | - | - | - |
| 1787774667 | 28.89° C | 71% | 1019.6 hPa | - | - | - | - |
| 1787774047 | 28.89° C | 70% | 1019.5 hPa | - | - | - | - |
* Rain since midnight (hover to see other rain measurements)
** Current wind speed in m/s (hover to see current wind gust speed)